createdAt,value
2023-02-07T00:03:51.727Z,9.45
2023-02-07T00:08:53.843Z,9.57
2023-02-07T00:13:55.766Z,9.70
2023-02-07T00:18:59.721Z,10.27
2023-02-07T00:24:01.536Z,9.98
2023-02-07T00:29:03.515Z,10.88
2023-02-07T00:34:05.843Z,11.97
2023-02-07T00:39:08.794Z,12.43
2023-02-07T00:44:10.268Z,10.67
2023-02-07T00:49:11.832Z,10.18
2023-02-07T00:54:13.275Z,10.50
2023-02-07T00:59:14.690Z,9.37
2023-02-07T01:04:16.046Z,10.23
2023-02-07T01:09:18.518Z,10.40
2023-02-07T01:14:19.848Z,10.38
2023-02-07T01:19:21.267Z,10.63
2023-02-07T01:24:22.523Z,10.33
2023-02-07T01:29:23.837Z,11.05
2023-02-07T01:34:25.087Z,9.60
2023-02-07T01:39:26.405Z,10.90
2023-02-07T01:44:27.677Z,10.70
2023-02-07T01:49:30.956Z,13.53
2023-02-07T01:54:33.561Z,12.93
2023-02-07T01:59:38.722Z,12.40
2023-02-07T02:04:40.494Z,14.07
2023-02-07T02:09:41.818Z,12.25
2023-02-07T02:14:43.063Z,13.03
2023-02-07T02:19:59.234Z,14.20
2023-02-07T02:25:03.577Z,14.33
2023-02-07T02:30:23.090Z,12.35
2023-02-07T02:35:34.783Z,13.18
2023-02-07T02:40:55.053Z,13.20
2023-02-07T02:46:02.601Z,13.00
2023-02-07T02:51:04.502Z,12.33
2023-02-07T02:56:05.810Z,12.52
2023-02-07T03:01:07.096Z,13.48
2023-02-07T03:06:31.399Z,14.00
2023-02-07T03:11:37.895Z,14.20
2023-02-07T03:16:58.493Z,14.30
2023-02-07T03:22:01.675Z,14.27
2023-02-07T03:27:05.566Z,15.43
2023-02-07T03:32:07.827Z,13.33
2023-02-07T03:37:14.976Z,17.60
2023-02-07T03:42:23.197Z,15.20
2023-02-07T03:47:25.697Z,15.95
2023-02-07T03:52:27.101Z,17.80
2023-02-07T03:57:28.420Z,16.90
2023-02-07T04:02:29.834Z,16.10
2023-02-07T04:07:31.155Z,15.47
2023-02-07T04:12:35.284Z,18.13
2023-02-07T04:17:36.709Z,19.65
2023-02-07T04:22:37.949Z,20.53
2023-02-07T04:27:39.250Z,17.52
2023-02-07T04:32:40.526Z,19.37
2023-02-07T04:37:41.817Z,16.38
2023-02-07T04:42:43.116Z,18.90
2023-02-07T04:47:44.474Z,17.87
2023-02-07T04:52:45.769Z,18.15
2023-02-07T04:57:47.112Z,19.07
2023-02-07T05:02:48.479Z,19.85
2023-02-07T05:07:49.825Z,19.75
2023-02-07T05:12:51.148Z,17.97
2023-02-07T05:17:52.469Z,19.98
2023-02-07T05:22:53.874Z,21.17
2023-02-07T05:27:55.246Z,20.88
2023-02-07T05:33:05.389Z,22.50
2023-02-07T05:38:08.687Z,22.23
2023-02-07T05:43:10.956Z,31.88
2023-02-07T05:48:12.891Z,19.07
2023-02-07T05:53:14.183Z,21.15
2023-02-07T05:58:15.482Z,20.02
2023-02-07T06:03:16.809Z,23.50
2023-02-07T06:08:18.359Z,23.67
2023-02-07T06:13:19.656Z,23.23
2023-02-07T06:18:20.934Z,21.40
2023-02-07T06:23:23.188Z,26.15
2023-02-07T06:28:24.547Z,18.27
2023-02-07T06:33:25.942Z,22.08
2023-02-07T06:38:27.253Z,20.20
2023-02-07T06:43:28.625Z,20.02
2023-02-07T06:48:29.937Z,20.10
2023-02-07T06:53:31.210Z,20.30
2023-02-07T06:58:32.553Z,22.05
2023-02-07T07:03:34.034Z,24.47
2023-02-07T07:08:35.332Z,20.05
2023-02-07T07:13:36.842Z,20.77
2023-02-07T07:18:39.049Z,20.60
2023-02-07T07:23:40.321Z,19.27
2023-02-07T07:28:41.651Z,20.70
2023-02-07T07:33:42.917Z,23.60
2023-02-07T07:38:46.098Z,20.73
2023-02-07T07:43:49.159Z,21.00
2023-02-07T07:48:50.543Z,18.75
2023-02-07T07:53:51.867Z,29.50
2023-02-07T07:58:53.177Z,39.60
2023-02-07T08:03:54.548Z,17.98
2023-02-07T08:08:56.667Z,25.93
2023-02-07T08:13:57.967Z,20.00
2023-02-07T08:18:59.268Z,20.63
2023-02-07T08:24:00.682Z,26.73
2023-02-07T08:29:02.344Z,32.15
2023-02-07T08:34:03.658Z,24.03
2023-02-07T08:39:06.667Z,20.15
2023-02-07T08:44:08.111Z,26.97
2023-02-07T08:49:09.423Z,17.70
2023-02-07T08:54:10.749Z,20.02
2023-02-07T08:59:12.054Z,17.57
2023-02-07T09:04:13.373Z,16.13
2023-02-07T09:09:14.615Z,17.83
2023-02-07T09:14:15.987Z,16.23
2023-02-07T09:19:17.265Z,18.23
2023-02-07T09:24:18.687Z,20.60
2023-02-07T09:29:20.804Z,20.35
2023-02-07T09:34:22.103Z,17.63
2023-02-07T09:39:23.345Z,18.55
2023-02-07T09:44:43.713Z,19.02
2023-02-07T09:50:03.789Z,26.90
2023-02-07T09:55:05.626Z,17.60
2023-02-07T10:00:18.335Z,15.90
2023-02-07T10:05:22.079Z,18.30
2023-02-07T10:10:37.195Z,21.33
2023-02-07T10:15:57.295Z,18.90
2023-02-07T10:21:17.888Z,15.18
2023-02-07T10:26:26.992Z,18.37
2023-02-07T10:31:28.940Z,19.08
2023-02-07T10:36:33.713Z,17.02
2023-02-07T10:41:38.015Z,15.17
2023-02-07T10:46:41.148Z,23.45
2023-02-07T10:51:42.799Z,20.17
2023-02-07T10:56:44.933Z,15.38
2023-02-07T11:01:52.616Z,16.27
2023-02-07T11:07:01.017Z,17.40
2023-02-07T11:12:12.568Z,17.10
2023-02-07T11:17:19.828Z,19.43
2023-02-07T11:22:21.920Z,17.23
2023-02-07T11:27:23.612Z,18.80
2023-02-07T11:32:25.827Z,18.37
2023-02-07T11:37:32.469Z,15.63
2023-02-07T11:42:35.503Z,15.93
2023-02-07T11:47:38.336Z,21.70
2023-02-07T11:52:40.415Z,18.77
2023-02-07T11:57:41.775Z,20.00
2023-02-07T12:02:47.778Z,19.27
2023-02-07T12:07:53.611Z,17.60
2023-02-07T12:12:55.085Z,23.63
2023-02-07T12:18:03.004Z,16.25
2023-02-07T12:23:41.889Z,14.30
2023-02-07T12:28:49.169Z,18.10
2023-02-07T12:34:09.466Z,16.10
2023-02-07T12:39:18.263Z,15.70
2023-02-07T12:44:34.430Z,15.50
2023-02-07T12:49:44.553Z,15.70
2023-02-07T12:54:48.964Z,16.67
2023-02-07T13:00:15.610Z,16.27
2023-02-07T13:05:16.927Z,16.60
2023-02-07T13:10:18.205Z,16.58
2023-02-07T13:15:26.967Z,16.67
2023-02-07T13:20:31.172Z,15.77
2023-02-07T13:25:36.509Z,16.33
2023-02-07T13:30:38.200Z,13.35
2023-02-07T13:35:40.152Z,14.25
2023-02-07T13:40:55.348Z,19.53
2023-02-07T13:46:05.868Z,19.42
2023-02-07T13:51:19.105Z,19.60
2023-02-07T13:56:48.638Z,22.83
2023-02-07T14:01:51.188Z,17.33
2023-02-07T14:07:05.271Z,12.57
2023-02-07T14:12:07.717Z,17.58
2023-02-07T14:17:13.712Z,18.93
2023-02-07T14:22:19.929Z,14.18
2023-02-07T14:27:41.546Z,16.20
2023-02-07T14:33:01.719Z,17.53
2023-02-07T14:38:02.936Z,17.20
2023-02-07T14:43:15.961Z,15.93
2023-02-07T14:48:32.998Z,19.48
2023-02-07T14:53:37.457Z,14.90
2023-02-07T14:58:40.976Z,14.53
2023-02-07T15:03:42.320Z,16.80
2023-02-07T15:08:54.794Z,13.53
2023-02-07T15:13:57.201Z,15.60
2023-02-07T15:19:00.754Z,14.45
2023-02-07T15:24:04.913Z,15.17
2023-02-07T15:29:07.607Z,16.52
2023-02-07T15:34:13.916Z,17.37
2023-02-07T15:39:18.231Z,13.98
2023-02-07T15:44:24.070Z,15.48
2023-02-07T15:49:33.621Z,16.67
2023-02-07T15:54:37.297Z,14.75
2023-02-07T15:59:40.994Z,13.53
2023-02-07T16:04:44.615Z,17.73
2023-02-07T16:09:47.095Z,13.35
2023-02-07T16:14:48.474Z,29.43
2023-02-07T16:19:50.131Z,16.15
2023-02-07T16:24:51.458Z,13.00
2023-02-07T16:29:54.416Z,15.52
2023-02-07T16:34:59.845Z,19.42
2023-02-07T16:40:01.450Z,13.37
2023-02-07T16:45:02.793Z,19.95
2023-02-07T16:50:04.138Z,22.93
2023-02-07T16:55:05.641Z,21.05
2023-02-07T17:00:08.190Z,21.02
2023-02-07T17:05:09.609Z,23.27
2023-02-07T17:10:17.630Z,20.48
2023-02-07T17:15:18.953Z,27.93
2023-02-07T17:20:23.613Z,49.53
2023-02-07T17:25:25.874Z,19.50
2023-02-07T17:30:28.221Z,34.03
2023-02-07T17:35:29.509Z,34.25
2023-02-07T17:40:33.165Z,25.00
2023-02-07T17:45:35.731Z,24.73
2023-02-07T17:50:40.917Z,21.73
2023-02-07T17:55:42.473Z,27.20
2023-02-07T18:00:44.324Z,21.35
2023-02-07T18:05:45.656Z,27.53
2023-02-07T18:10:46.968Z,34.95
2023-02-07T18:15:48.302Z,21.73
2023-02-07T18:20:49.653Z,19.47
2023-02-07T18:25:51.166Z,22.05
2023-02-07T18:30:52.611Z,18.00
2023-02-07T18:35:57.745Z,15.32
2023-02-07T18:40:59.108Z,21.50
2023-02-07T18:46:01.123Z,14.50
2023-02-07T18:51:10.350Z,28.38
2023-02-07T18:56:12.837Z,85.40
2023-02-07T19:01:18.848Z,50.28
2023-02-07T19:06:20.746Z,44.38
2023-02-07T19:11:22.477Z,39.90
2023-02-07T19:16:24.110Z,32.95
2023-02-07T19:21:28.049Z,35.07
2023-02-07T19:26:29.568Z,25.67
2023-02-07T19:31:31.205Z,39.13
2023-02-07T19:36:32.633Z,41.40
2023-02-07T19:41:34.397Z,42.28
2023-02-07T19:46:35.965Z,35.37
2023-02-07T19:51:37.358Z,44.15
2023-02-07T19:56:39.203Z,38.45
2023-02-07T20:01:40.543Z,23.63
2023-02-07T20:06:41.893Z,15.40
2023-02-07T20:11:43.218Z,14.60
2023-02-07T20:16:44.517Z,16.88
2023-02-07T20:21:45.842Z,18.52
2023-02-07T20:26:47.486Z,17.67
2023-02-07T20:31:49.254Z,15.13
2023-02-07T20:36:50.564Z,16.20
2023-02-07T20:41:51.898Z,24.15
2023-02-07T20:46:54.563Z,16.63
2023-02-07T20:51:56.625Z,13.60
2023-02-07T20:56:58.402Z,15.98
2023-02-07T21:01:59.799Z,14.53
2023-02-07T21:07:01.740Z,13.48
2023-02-07T21:12:03.212Z,15.55
2023-02-07T21:17:06.463Z,16.33
2023-02-07T21:22:08.071Z,15.43
2023-02-07T21:27:09.527Z,22.57
2023-02-07T21:32:10.929Z,15.95
2023-02-07T21:37:12.248Z,15.18
2023-02-07T21:42:13.859Z,15.30
2023-02-07T21:47:15.176Z,16.20
2023-02-07T21:52:18.280Z,13.23
2023-02-07T21:57:19.789Z,16.42
2023-02-07T22:02:21.294Z,20.20
2023-02-07T22:07:22.583Z,19.33
2023-02-07T22:12:23.874Z,16.42
2023-02-07T22:17:26.198Z,15.57
2023-02-07T22:22:27.485Z,18.15
2023-02-07T22:27:28.745Z,20.92
2023-02-07T22:32:30.160Z,18.63
2023-02-07T22:37:31.477Z,17.08
2023-02-07T22:42:33.284Z,17.60
2023-02-07T22:47:34.610Z,18.77
2023-02-07T22:52:35.876Z,18.27
2023-02-07T22:57:37.218Z,19.87
2023-02-07T23:02:39.417Z,17.65
2023-02-07T23:07:40.848Z,16.80
2023-02-07T23:12:42.097Z,18.30
2023-02-07T23:17:43.411Z,18.88
2023-02-07T23:22:44.717Z,18.83
2023-02-07T23:27:46.059Z,20.60
2023-02-07T23:32:47.357Z,24.13
2023-02-07T23:37:48.623Z,21.85
2023-02-07T23:42:49.935Z,21.70
2023-02-07T23:47:51.236Z,18.33
2023-02-07T23:52:52.541Z,19.45
2023-02-07T23:57:55.126Z,19.93
